sensor_id;sensor_type;location;lat;lon;timestamp;P1;durP1;ratioP1;P2;durP2;ratioP2
7529;SDS011;3806;52.270;10.544;2023-06-22T00:02:24;9.57;;;6.57;;
7529;SDS011;3806;52.270;10.544;2023-06-22T00:04:49;7.80;;;6.20;;
7529;SDS011;3806;52.270;10.544;2023-06-22T00:07:14;9.48;;;6.95;;
7529;SDS011;3806;52.270;10.544;2023-06-22T00:09:40;9.88;;;7.00;;
7529;SDS011;3806;52.270;10.544;2023-06-22T00:12:05;8.90;;;5.97;;
7529;SDS011;3806;52.270;10.544;2023-06-22T00:14:31;8.95;;;6.68;;
7529;SDS011;3806;52.270;10.544;2023-06-22T00:16:57;11.88;;;7.57;;
7529;SDS011;3806;52.270;10.544;2023-06-22T00:19:23;10.60;;;7.00;;
7529;SDS011;3806;52.270;10.544;2023-06-22T00:21:52;12.68;;;6.90;;
7529;SDS011;3806;52.270;10.544;2023-06-22T00:24:18;9.70;;;6.18;;
7529;SDS011;3806;52.270;10.544;2023-06-22T00:26:44;8.20;;;6.63;;
7529;SDS011;3806;52.270;10.544;2023-06-22T00:29:10;9.80;;;7.00;;
7529;SDS011;3806;52.270;10.544;2023-06-22T00:31:36;12.10;;;7.40;;
7529;SDS011;3806;52.270;10.544;2023-06-22T00:34:01;12.35;;;7.28;;
7529;SDS011;3806;52.270;10.544;2023-06-22T00:36:27;11.85;;;7.47;;
7529;SDS011;3806;52.270;10.544;2023-06-22T00:38:52;13.60;;;8.63;;
7529;SDS011;3806;52.270;10.544;2023-06-22T00:41:18;8.98;;;6.60;;
7529;SDS011;3806;52.270;10.544;2023-06-22T00:43:43;11.73;;;7.30;;
7529;SDS011;3806;52.270;10.544;2023-06-22T00:46:09;12.05;;;7.38;;
7529;SDS011;3806;52.270;10.544;2023-06-22T00:48:34;9.30;;;6.80;;
7529;SDS011;3806;52.270;10.544;2023-06-22T00:51:02;10.00;;;6.63;;
7529;SDS011;3806;52.270;10.544;2023-06-22T00:53:31;11.07;;;7.88;;
7529;SDS011;3806;52.270;10.544;2023-06-22T00:55:59;11.90;;;7.93;;
7529;SDS011;3806;52.270;10.544;2023-06-22T00:58:25;11.52;;;7.95;;
7529;SDS011;3806;52.270;10.544;2023-06-22T01:00:51;13.98;;;8.32;;
7529;SDS011;3806;52.270;10.544;2023-06-22T01:03:16;13.07;;;8.05;;
7529;SDS011;3806;52.270;10.544;2023-06-22T01:05:42;12.63;;;8.10;;
7529;SDS011;3806;52.270;10.544;2023-06-22T01:08:14;11.98;;;7.88;;
7529;SDS011;3806;52.270;10.544;2023-06-22T01:13:26;10.70;;;7.30;;
7529;SDS011;3806;52.270;10.544;2023-06-22T01:16:16;9.85;;;7.00;;
7529;SDS011;3806;52.270;10.544;2023-06-22T01:18:47;9.68;;;7.15;;
7529;SDS011;3806;52.270;10.544;2023-06-22T01:21:18;13.05;;;7.47;;
7529;SDS011;3806;52.270;10.544;2023-06-22T01:24:10;11.70;;;6.80;;
7529;SDS011;3806;52.270;10.544;2023-06-22T01:29:55;12.02;;;7.78;;
7529;SDS011;3806;52.270;10.544;2023-06-22T01:32:33;12.05;;;7.68;;
7529;SDS011;3806;52.270;10.544;2023-06-22T01:35:01;11.50;;;7.95;;
7529;SDS011;3806;52.270;10.544;2023-06-22T01:37:28;10.85;;;7.32;;
7529;SDS011;3806;52.270;10.544;2023-06-22T01:39:56;11.07;;;8.00;;
7529;SDS011;3806;52.270;10.544;2023-06-22T01:42:23;11.00;;;7.82;;
7529;SDS011;3806;52.270;10.544;2023-06-22T01:44:50;9.43;;;7.28;;
7529;SDS011;3806;52.270;10.544;2023-06-22T01:47:18;9.30;;;6.88;;
7529;SDS011;3806;52.270;10.544;2023-06-22T01:49:43;11.63;;;7.75;;
7529;SDS011;3806;52.270;10.544;2023-06-22T01:52:10;10.10;;;7.30;;
7529;SDS011;3806;52.270;10.544;2023-06-22T01:54:37;10.40;;;7.15;;
7529;SDS011;3806;52.270;10.544;2023-06-22T01:57:05;11.80;;;7.18;;
7529;SDS011;3806;52.270;10.544;2023-06-22T02:02:27;10.35;;;7.85;;
7529;SDS011;3806;52.270;10.544;2023-06-22T02:05:05;11.55;;;7.50;;
7529;SDS011;3806;52.270;10.544;2023-06-22T02:07:33;11.30;;;7.30;;
7529;SDS011;3806;52.270;10.544;2023-06-22T02:10:04;10.40;;;7.60;;
7529;SDS011;3806;52.270;10.544;2023-06-22T02:12:32;11.63;;;7.38;;
7529;SDS011;3806;52.270;10.544;2023-06-22T02:14:59;10.00;;;7.60;;
7529;SDS011;3806;52.270;10.544;2023-06-22T02:17:26;13.55;;;8.52;;
7529;SDS011;3806;52.270;10.544;2023-06-22T02:19:51;13.05;;;8.93;;
7529;SDS011;3806;52.270;10.544;2023-06-22T02:22:17;12.70;;;8.00;;
7529;SDS011;3806;52.270;10.544;2023-06-22T02:24:43;10.13;;;7.70;;
7529;SDS011;3806;52.270;10.544;2023-06-22T02:27:08;13.57;;;8.23;;
7529;SDS011;3806;52.270;10.544;2023-06-22T02:29:35;10.73;;;7.45;;
7529;SDS011;3806;52.270;10.544;2023-06-22T02:32:01;10.50;;;7.68;;
7529;SDS011;3806;52.270;10.544;2023-06-22T02:34:27;13.00;;;8.27;;
7529;SDS011;3806;52.270;10.544;2023-06-22T02:36:53;10.52;;;7.03;;
7529;SDS011;3806;52.270;10.544;2023-06-22T02:39:19;11.32;;;7.47;;
7529;SDS011;3806;52.270;10.544;2023-06-22T02:41:47;12.18;;;7.68;;
7529;SDS011;3806;52.270;10.544;2023-06-22T02:44:13;11.35;;;7.78;;
7529;SDS011;3806;52.270;10.544;2023-06-22T02:46:39;12.32;;;7.78;;
7529;SDS011;3806;52.270;10.544;2023-06-22T02:49:04;10.60;;;7.72;;
7529;SDS011;3806;52.270;10.544;2023-06-22T02:51:32;10.48;;;7.82;;
7529;SDS011;3806;52.270;10.544;2023-06-22T02:53:59;10.85;;;7.70;;
7529;SDS011;3806;52.270;10.544;2023-06-22T02:56:24;11.57;;;8.00;;
7529;SDS011;3806;52.270;10.544;2023-06-22T02:58:50;10.82;;;7.38;;
7529;SDS011;3806;52.270;10.544;2023-06-22T03:01:16;10.27;;;7.30;;
7529;SDS011;3806;52.270;10.544;2023-06-22T03:03:42;10.27;;;7.07;;
7529;SDS011;3806;52.270;10.544;2023-06-22T03:06:07;12.70;;;7.47;;
7529;SDS011;3806;52.270;10.544;2023-06-22T03:08:33;9.32;;;6.80;;
7529;SDS011;3806;52.270;10.544;2023-06-22T03:10:59;7.90;;;6.55;;
7529;SDS011;3806;52.270;10.544;2023-06-22T03:13:24;10.48;;;7.13;;
7529;SDS011;3806;52.270;10.544;2023-06-22T03:15:50;10.63;;;6.78;;
7529;SDS011;3806;52.270;10.544;2023-06-22T03:18:15;9.15;;;6.75;;
7529;SDS011;3806;52.270;10.544;2023-06-22T03:20:41;10.48;;;6.80;;
7529;SDS011;3806;52.270;10.544;2023-06-22T03:23:07;10.32;;;6.80;;
7529;SDS011;3806;52.270;10.544;2023-06-22T03:25:32;11.68;;;7.70;;
7529;SDS011;3806;52.270;10.544;2023-06-22T03:27:58;11.23;;;6.80;;
7529;SDS011;3806;52.270;10.544;2023-06-22T03:30:25;10.30;;;7.05;;
7529;SDS011;3806;52.270;10.544;2023-06-22T03:32:51;10.55;;;7.20;;
7529;SDS011;3806;52.270;10.544;2023-06-22T03:35:16;10.70;;;6.90;;
7529;SDS011;3806;52.270;10.544;2023-06-22T03:37:42;12.63;;;6.47;;
7529;SDS011;3806;52.270;10.544;2023-06-22T03:40:07;8.57;;;6.22;;
7529;SDS011;3806;52.270;10.544;2023-06-22T03:42:34;10.35;;;7.03;;
7529;SDS011;3806;52.270;10.544;2023-06-22T03:45:02;9.50;;;7.32;;
7529;SDS011;3806;52.270;10.544;2023-06-22T03:47:28;10.65;;;6.32;;
7529;SDS011;3806;52.270;10.544;2023-06-22T03:49:54;9.70;;;6.05;;
7529;SDS011;3806;52.270;10.544;2023-06-22T03:52:20;10.00;;;6.78;;
7529;SDS011;3806;52.270;10.544;2023-06-22T03:54:47;9.80;;;6.50;;
7529;SDS011;3806;52.270;10.544;2023-06-22T03:57:13;11.23;;;7.15;;
7529;SDS011;3806;52.270;10.544;2023-06-22T03:59:38;7.93;;;6.15;;
7529;SDS011;3806;52.270;10.544;2023-06-22T04:02:04;14.30;;;7.20;;
7529;SDS011;3806;52.270;10.544;2023-06-22T04:04:29;9.98;;;6.95;;
7529;SDS011;3806;52.270;10.544;2023-06-22T04:06:55;7.93;;;5.50;;
7529;SDS011;3806;52.270;10.544;2023-06-22T04:09:20;16.23;;;7.60;;
7529;SDS011;3806;52.270;10.544;2023-06-22T04:11:46;9.88;;;6.68;;
7529;SDS011;3806;52.270;10.544;2023-06-22T04:14:12;12.50;;;6.72;;
7529;SDS011;3806;52.270;10.544;2023-06-22T04:16:38;7.65;;;6.13;;
7529;SDS011;3806;52.270;10.544;2023-06-22T04:19:03;7.90;;;6.30;;
7529;SDS011;3806;52.270;10.544;2023-06-22T04:21:29;9.32;;;7.07;;
7529;SDS011;3806;52.270;10.544;2023-06-22T04:23:55;10.27;;;6.20;;
7529;SDS011;3806;52.270;10.544;2023-06-22T04:26:20;11.38;;;6.57;;
7529;SDS011;3806;52.270;10.544;2023-06-22T04:28:46;8.15;;;5.90;;
7529;SDS011;3806;52.270;10.544;2023-06-22T04:31:24;7.43;;;5.75;;
7529;SDS011;3806;52.270;10.544;2023-06-22T04:33:56;8.35;;;6.07;;
7529;SDS011;3806;52.270;10.544;2023-06-22T04:36:22;8.00;;;6.07;;
7529;SDS011;3806;52.270;10.544;2023-06-22T04:38:48;10.02;;;6.03;;
7529;SDS011;3806;52.270;10.544;2023-06-22T04:41:17;12.13;;;6.03;;
7529;SDS011;3806;52.270;10.544;2023-06-22T04:43:48;9.18;;;6.28;;
7529;SDS011;3806;52.270;10.544;2023-06-22T04:46:18;8.57;;;6.65;;
7529;SDS011;3806;52.270;10.544;2023-06-22T04:48:44;7.05;;;5.55;;
7529;SDS011;3806;52.270;10.544;2023-06-22T04:51:10;8.05;;;5.97;;
7529;SDS011;3806;52.270;10.544;2023-06-22T04:53:35;7.30;;;4.93;;
7529;SDS011;3806;52.270;10.544;2023-06-22T04:56:01;9.20;;;5.88;;
7529;SDS011;3806;52.270;10.544;2023-06-22T04:58:29;8.32;;;5.80;;
7529;SDS011;3806;52.270;10.544;2023-06-22T05:00:57;9.13;;;5.80;;
7529;SDS011;3806;52.270;10.544;2023-06-22T05:03:24;8.13;;;5.45;;
7529;SDS011;3806;52.270;10.544;2023-06-22T05:05:51;6.90;;;5.28;;
7529;SDS011;3806;52.270;10.544;2023-06-22T05:08:17;7.35;;;5.10;;
7529;SDS011;3806;52.270;10.544;2023-06-22T05:10:43;9.27;;;5.68;;
7529;SDS011;3806;52.270;10.544;2023-06-22T05:13:08;6.82;;;4.95;;
7529;SDS011;3806;52.270;10.544;2023-06-22T05:15:34;7.35;;;5.28;;
7529;SDS011;3806;52.270;10.544;2023-06-22T05:18:04;6.85;;;5.45;;
7529;SDS011;3806;52.270;10.544;2023-06-22T05:20:31;7.80;;;5.50;;
7529;SDS011;3806;52.270;10.544;2023-06-22T05:22:57;8.95;;;5.00;;
7529;SDS011;3806;52.270;10.544;2023-06-22T05:25:23;9.60;;;5.65;;
7529;SDS011;3806;52.270;10.544;2023-06-22T05:27:48;6.30;;;4.65;;
7529;SDS011;3806;52.270;10.544;2023-06-22T05:30:15;6.63;;;5.10;;
7529;SDS011;3806;52.270;10.544;2023-06-22T05:32:42;6.63;;;4.60;;
7529;SDS011;3806;52.270;10.544;2023-06-22T05:35:09;10.18;;;5.45;;
7529;SDS011;3806;52.270;10.544;2023-06-22T05:37:34;7.68;;;4.80;;
7529;SDS011;3806;52.270;10.544;2023-06-22T05:40:00;7.88;;;5.15;;
7529;SDS011;3806;52.270;10.544;2023-06-22T05:42:25;7.25;;;4.45;;
7529;SDS011;3806;52.270;10.544;2023-06-22T05:44:52;7.82;;;5.45;;
7529;SDS011;3806;52.270;10.544;2023-06-22T05:47:18;6.72;;;4.80;;
7529;SDS011;3806;52.270;10.544;2023-06-22T05:49:43;6.40;;;4.45;;
7529;SDS011;3806;52.270;10.544;2023-06-22T05:52:09;8.07;;;4.57;;
7529;SDS011;3806;52.270;10.544;2023-06-22T05:54:34;6.57;;;4.57;;
7529;SDS011;3806;52.270;10.544;2023-06-22T05:57:00;5.53;;;4.55;;
7529;SDS011;3806;52.270;10.544;2023-06-22T05:59:26;5.75;;;4.47;;
7529;SDS011;3806;52.270;10.544;2023-06-22T06:01:51;9.43;;;4.63;;
7529;SDS011;3806;52.270;10.544;2023-06-22T06:04:17;8.98;;;4.57;;
7529;SDS011;3806;52.270;10.544;2023-06-22T06:06:43;7.28;;;4.25;;
7529;SDS011;3806;52.270;10.544;2023-06-22T06:09:09;6.10;;;4.07;;
7529;SDS011;3806;52.270;10.544;2023-06-22T06:11:36;6.50;;;4.88;;
7529;SDS011;3806;52.270;10.544;2023-06-22T06:14:02;7.55;;;4.55;;
7529;SDS011;3806;52.270;10.544;2023-06-22T06:16:27;7.43;;;4.68;;
7529;SDS011;3806;52.270;10.544;2023-06-22T06:18:53;7.45;;;3.95;;
7529;SDS011;3806;52.270;10.544;2023-06-22T06:21:20;6.10;;;4.60;;
7529;SDS011;3806;52.270;10.544;2023-06-22T06:23:46;7.05;;;4.28;;
7529;SDS011;3806;52.270;10.544;2023-06-22T06:26:12;7.68;;;4.95;;
7529;SDS011;3806;52.270;10.544;2023-06-22T06:28:37;7.18;;;4.30;;
7529;SDS011;3806;52.270;10.544;2023-06-22T06:31:03;7.97;;;4.82;;
7529;SDS011;3806;52.270;10.544;2023-06-22T06:33:33;7.70;;;4.50;;
7529;SDS011;3806;52.270;10.544;2023-06-22T06:35:58;6.68;;;4.90;;
7529;SDS011;3806;52.270;10.544;2023-06-22T06:38:26;8.30;;;4.88;;
7529;SDS011;3806;52.270;10.544;2023-06-22T06:40:52;7.38;;;4.93;;
7529;SDS011;3806;52.270;10.544;2023-06-22T06:43:17;7.43;;;4.90;;
7529;SDS011;3806;52.270;10.544;2023-06-22T06:45:43;7.03;;;4.50;;
7529;SDS011;3806;52.270;10.544;2023-06-22T06:48:09;7.90;;;4.82;;
7529;SDS011;3806;52.270;10.544;2023-06-22T06:50:35;6.75;;;4.45;;
7529;SDS011;3806;52.270;10.544;2023-06-22T06:53:00;5.95;;;4.57;;
7529;SDS011;3806;52.270;10.544;2023-06-22T06:55:26;6.57;;;5.20;;
7529;SDS011;3806;52.270;10.544;2023-06-22T06:57:51;5.75;;;4.53;;
7529;SDS011;3806;52.270;10.544;2023-06-22T07:00:17;11.00;;;5.00;;
7529;SDS011;3806;52.270;10.544;2023-06-22T07:02:44;9.30;;;5.35;;
7529;SDS011;3806;52.270;10.544;2023-06-22T07:05:11;7.78;;;4.38;;
7529;SDS011;3806;52.270;10.544;2023-06-22T07:07:37;8.63;;;4.68;;
7529;SDS011;3806;52.270;10.544;2023-06-22T07:10:07;7.97;;;5.25;;
7529;SDS011;3806;52.270;10.544;2023-06-22T07:12:32;8.38;;;5.32;;
7529;SDS011;3806;52.270;10.544;2023-06-22T07:15:05;6.53;;;5.07;;
7529;SDS011;3806;52.270;10.544;2023-06-22T07:17:35;10.02;;;5.57;;
7529;SDS011;3806;52.270;10.544;2023-06-22T07:20:01;7.38;;;5.20;;
7529;SDS011;3806;52.270;10.544;2023-06-22T07:22:32;7.68;;;5.28;;
7529;SDS011;3806;52.270;10.544;2023-06-22T07:24:58;7.63;;;5.35;;
7529;SDS011;3806;52.270;10.544;2023-06-22T07:27:23;9.70;;;5.60;;
7529;SDS011;3806;52.270;10.544;2023-06-22T07:29:49;5.80;;;4.75;;
7529;SDS011;3806;52.270;10.544;2023-06-22T07:32:15;7.38;;;5.20;;
7529;SDS011;3806;52.270;10.544;2023-06-22T07:34:41;6.05;;;4.80;;
7529;SDS011;3806;52.270;10.544;2023-06-22T07:37:07;8.00;;;5.47;;
7529;SDS011;3806;52.270;10.544;2023-06-22T07:39:32;7.88;;;5.72;;
7529;SDS011;3806;52.270;10.544;2023-06-22T07:41:58;9.07;;;5.78;;
7529;SDS011;3806;52.270;10.544;2023-06-22T07:44:23;7.15;;;4.90;;
7529;SDS011;3806;52.270;10.544;2023-06-22T07:46:49;7.32;;;5.57;;
7529;SDS011;3806;52.270;10.544;2023-06-22T07:49:14;9.25;;;5.72;;
7529;SDS011;3806;52.270;10.544;2023-06-22T07:51:40;8.95;;;5.68;;
7529;SDS011;3806;52.270;10.544;2023-06-22T07:54:05;9.90;;;6.07;;
7529;SDS011;3806;52.270;10.544;2023-06-22T07:56:31;8.50;;;6.35;;
7529;SDS011;3806;52.270;10.544;2023-06-22T07:58:58;9.20;;;5.82;;
7529;SDS011;3806;52.270;10.544;2023-06-22T08:01:24;11.45;;;5.63;;
7529;SDS011;3806;52.270;10.544;2023-06-22T08:03:49;16.17;;;6.72;;
7529;SDS011;3806;52.270;10.544;2023-06-22T08:06:15;9.48;;;5.75;;
7529;SDS011;3806;52.270;10.544;2023-06-22T08:08:41;13.32;;;6.70;;
7529;SDS011;3806;52.270;10.544;2023-06-22T08:11:07;8.20;;;5.90;;
7529;SDS011;3806;52.270;10.544;2023-06-22T08:13:33;8.02;;;6.03;;
7529;SDS011;3806;52.270;10.544;2023-06-22T08:15:59;8.15;;;6.53;;
7529;SDS011;3806;52.270;10.544;2023-06-22T08:18:24;10.98;;;6.25;;
7529;SDS011;3806;52.270;10.544;2023-06-22T08:20:50;8.10;;;6.28;;
7529;SDS011;3806;52.270;10.544;2023-06-22T08:23:15;10.60;;;6.50;;
7529;SDS011;3806;52.270;10.544;2023-06-22T08:25:41;9.18;;;6.35;;
7529;SDS011;3806;52.270;10.544;2023-06-22T08:28:06;12.32;;;7.50;;
7529;SDS011;3806;52.270;10.544;2023-06-22T08:30:32;10.50;;;8.43;;
7529;SDS011;3806;52.270;10.544;2023-06-22T08:32:58;9.30;;;6.70;;
7529;SDS011;3806;52.270;10.544;2023-06-22T08:35:23;8.68;;;6.70;;
7529;SDS011;3806;52.270;10.544;2023-06-22T08:37:49;7.63;;;6.22;;
7529;SDS011;3806;52.270;10.544;2023-06-22T08:40:18;11.93;;;7.80;;
7529;SDS011;3806;52.270;10.544;2023-06-22T08:42:44;9.00;;;7.00;;
7529;SDS011;3806;52.270;10.544;2023-06-22T08:45:11;9.65;;;7.10;;
7529;SDS011;3806;52.270;10.544;2023-06-22T08:47:37;11.77;;;7.95;;
7529;SDS011;3806;52.270;10.544;2023-06-22T08:50:03;11.57;;;8.52;;
7529;SDS011;3806;52.270;10.544;2023-06-22T08:52:30;11.43;;;7.45;;
7529;SDS011;3806;52.270;10.544;2023-06-22T08:54:56;9.93;;;7.10;;
7529;SDS011;3806;52.270;10.544;2023-06-22T08:57:23;11.20;;;8.35;;
7529;SDS011;3806;52.270;10.544;2023-06-22T08:59:48;8.68;;;6.90;;
7529;SDS011;3806;52.270;10.544;2023-06-22T09:02:14;9.63;;;7.32;;
7529;SDS011;3806;52.270;10.544;2023-06-22T09:04:39;9.63;;;8.00;;
7529;SDS011;3806;52.270;10.544;2023-06-22T09:07:05;9.15;;;6.93;;
7529;SDS011;3806;52.270;10.544;2023-06-22T09:09:30;10.70;;;8.13;;
7529;SDS011;3806;52.270;10.544;2023-06-22T09:11:56;13.30;;;9.00;;
7529;SDS011;3806;52.270;10.544;2023-06-22T09:14:21;9.48;;;7.68;;
7529;SDS011;3806;52.270;10.544;2023-06-22T09:16:47;14.48;;;8.30;;
7529;SDS011;3806;52.270;10.544;2023-06-22T09:19:12;11.13;;;8.55;;
7529;SDS011;3806;52.270;10.544;2023-06-22T09:21:38;11.23;;;8.50;;
7529;SDS011;3806;52.270;10.544;2023-06-22T09:24:03;10.75;;;7.70;;
7529;SDS011;3806;52.270;10.544;2023-06-22T09:26:29;9.65;;;7.53;;
7529;SDS011;3806;52.270;10.544;2023-06-22T09:28:55;10.23;;;7.90;;
7529;SDS011;3806;52.270;10.544;2023-06-22T09:31:20;10.20;;;6.95;;
7529;SDS011;3806;52.270;10.544;2023-06-22T09:33:52;10.57;;;7.40;;
7529;SDS011;3806;52.270;10.544;2023-06-22T09:36:19;11.63;;;7.53;;
7529;SDS011;3806;52.270;10.544;2023-06-22T09:38:47;9.90;;;7.43;;
7529;SDS011;3806;52.270;10.544;2023-06-22T09:41:13;11.40;;;7.40;;
7529;SDS011;3806;52.270;10.544;2023-06-22T09:43:38;10.15;;;7.63;;
7529;SDS011;3806;52.270;10.544;2023-06-22T09:46:04;11.57;;;7.68;;
7529;SDS011;3806;52.270;10.544;2023-06-22T09:48:30;10.23;;;7.85;;
7529;SDS011;3806;52.270;10.544;2023-06-22T09:50:56;8.68;;;7.63;;
7529;SDS011;3806;52.270;10.544;2023-06-22T09:53:22;8.07;;;6.65;;
7529;SDS011;3806;52.270;10.544;2023-06-22T09:55:47;9.75;;;7.25;;
7529;SDS011;3806;52.270;10.544;2023-06-22T09:58:13;10.35;;;7.53;;
7529;SDS011;3806;52.270;10.544;2023-06-22T10:00:38;9.40;;;7.47;;
7529;SDS011;3806;52.270;10.544;2023-06-22T10:03:04;9.80;;;7.70;;
7529;SDS011;3806;52.270;10.544;2023-06-22T10:05:29;8.27;;;6.75;;
7529;SDS011;3806;52.270;10.544;2023-06-22T10:07:55;11.07;;;8.32;;
7529;SDS011;3806;52.270;10.544;2023-06-22T10:10:20;9.15;;;7.43;;
7529;SDS011;3806;52.270;10.544;2023-06-22T10:12:46;9.65;;;7.65;;
7529;SDS011;3806;52.270;10.544;2023-06-22T10:15:12;10.50;;;7.25;;
7529;SDS011;3806;52.270;10.544;2023-06-22T10:17:39;8.68;;;6.43;;
7529;SDS011;3806;52.270;10.544;2023-06-22T10:20:07;9.57;;;8.07;;
7529;SDS011;3806;52.270;10.544;2023-06-22T10:22:40;10.20;;;7.80;;
7529;SDS011;3806;52.270;10.544;2023-06-22T10:25:07;10.60;;;8.52;;
7529;SDS011;3806;52.270;10.544;2023-06-22T10:27:33;11.02;;;7.82;;
7529;SDS011;3806;52.270;10.544;2023-06-22T10:29:59;10.45;;;8.02;;
7529;SDS011;3806;52.270;10.544;2023-06-22T10:32:24;12.85;;;8.68;;
7529;SDS011;3806;52.270;10.544;2023-06-22T10:34:50;11.23;;;7.38;;
7529;SDS011;3806;52.270;10.544;2023-06-22T10:37:15;10.38;;;7.65;;
7529;SDS011;3806;52.270;10.544;2023-06-22T10:39:41;10.90;;;8.45;;
7529;SDS011;3806;52.270;10.544;2023-06-22T10:42:06;9.23;;;7.57;;
7529;SDS011;3806;52.270;10.544;2023-06-22T10:44:32;11.15;;;8.00;;
7529;SDS011;3806;52.270;10.544;2023-06-22T10:46:58;9.05;;;7.50;;
7529;SDS011;3806;52.270;10.544;2023-06-22T10:49:23;9.95;;;8.02;;
7529;SDS011;3806;52.270;10.544;2023-06-22T10:51:48;11.27;;;7.97;;
7529;SDS011;3806;52.270;10.544;2023-06-22T10:54:14;8.88;;;6.47;;
7529;SDS011;3806;52.270;10.544;2023-06-22T10:56:42;9.77;;;7.45;;
7529;SDS011;3806;52.270;10.544;2023-06-22T10:59:07;10.57;;;7.43;;
7529;SDS011;3806;52.270;10.544;2023-06-22T11:01:33;8.90;;;7.35;;
7529;SDS011;3806;52.270;10.544;2023-06-22T11:03:58;9.77;;;7.53;;
7529;SDS011;3806;52.270;10.544;2023-06-22T11:06:24;11.75;;;7.38;;
7529;SDS011;3806;52.270;10.544;2023-06-22T11:08:49;10.13;;;7.22;;
7529;SDS011;3806;52.270;10.544;2023-06-22T11:11:15;26.23;;;14.02;;
7529;SDS011;3806;52.270;10.544;2023-06-22T11:13:42;9.60;;;7.00;;
7529;SDS011;3806;52.270;10.544;2023-06-22T11:16:08;22.25;;;13.00;;
7529;SDS011;3806;52.270;10.544;2023-06-22T11:18:34;11.68;;;7.55;;
7529;SDS011;3806;52.270;10.544;2023-06-22T11:21:00;8.55;;;6.32;;
7529;SDS011;3806;52.270;10.544;2023-06-22T11:23:26;9.00;;;7.05;;
7529;SDS011;3806;52.270;10.544;2023-06-22T11:25:52;8.13;;;6.55;;
7529;SDS011;3806;52.270;10.544;2023-06-22T11:28:18;9.80;;;6.78;;
7529;SDS011;3806;52.270;10.544;2023-06-22T11:30:43;8.15;;;6.15;;
7529;SDS011;3806;52.270;10.544;2023-06-22T11:33:09;9.25;;;6.70;;
7529;SDS011;3806;52.270;10.544;2023-06-22T11:35:34;7.20;;;5.95;;
7529;SDS011;3806;52.270;10.544;2023-06-22T11:38:00;7.68;;;6.00;;
7529;SDS011;3806;52.270;10.544;2023-06-22T11:40:25;7.85;;;6.57;;
7529;SDS011;3806;52.270;10.544;2023-06-22T11:42:51;8.45;;;6.45;;
7529;SDS011;3806;52.270;10.544;2023-06-22T11:45:17;8.63;;;6.38;;
7529;SDS011;3806;52.270;10.544;2023-06-22T11:47:43;6.95;;;5.50;;
7529;SDS011;3806;52.270;10.544;2023-06-22T11:50:08;6.95;;;5.65;;
7529;SDS011;3806;52.270;10.544;2023-06-22T11:52:34;10.07;;;5.63;;
7529;SDS011;3806;52.270;10.544;2023-06-22T11:55:03;6.55;;;5.40;;
7529;SDS011;3806;52.270;10.544;2023-06-22T11:57:32;7.63;;;5.43;;
7529;SDS011;3806;52.270;10.544;2023-06-22T11:59:59;7.05;;;5.78;;
7529;SDS011;3806;52.270;10.544;2023-06-22T12:02:24;7.28;;;5.32;;
7529;SDS011;3806;52.270;10.544;2023-06-22T12:04:50;6.75;;;5.20;;
7529;SDS011;3806;52.270;10.544;2023-06-22T12:07:17;8.40;;;5.85;;
7529;SDS011;3806;52.270;10.544;2023-06-22T12:09:43;8.00;;;5.75;;
7529;SDS011;3806;52.270;10.544;2023-06-22T12:12:09;7.93;;;6.07;;
7529;SDS011;3806;52.270;10.544;2023-06-22T12:14:34;7.93;;;5.60;;
7529;SDS011;3806;52.270;10.544;2023-06-22T12:17:00;7.20;;;5.53;;
7529;SDS011;3806;52.270;10.544;2023-06-22T12:19:25;6.90;;;5.95;;
7529;SDS011;3806;52.270;10.544;2023-06-22T12:21:51;8.90;;;6.50;;
7529;SDS011;3806;52.270;10.544;2023-06-22T12:24:16;8.23;;;5.88;;
7529;SDS011;3806;52.270;10.544;2023-06-22T12:26:42;7.90;;;6.13;;
7529;SDS011;3806;52.270;10.544;2023-06-22T12:29:08;8.15;;;6.07;;
7529;SDS011;3806;52.270;10.544;2023-06-22T12:31:34;10.05;;;6.35;;
7529;SDS011;3806;52.270;10.544;2023-06-22T12:34:00;8.88;;;6.50;;
7529;SDS011;3806;52.270;10.544;2023-06-22T12:36:26;8.73;;;5.53;;
7529;SDS011;3806;52.270;10.544;2023-06-22T12:38:51;7.18;;;5.65;;
7529;SDS011;3806;52.270;10.544;2023-06-22T12:41:16;6.57;;;5.85;;
7529;SDS011;3806;52.270;10.544;2023-06-22T12:43:42;7.03;;;6.05;;
7529;SDS011;3806;52.270;10.544;2023-06-22T12:46:07;7.60;;;6.03;;
7529;SDS011;3806;52.270;10.544;2023-06-22T12:48:33;7.63;;;6.05;;
7529;SDS011;3806;52.270;10.544;2023-06-22T12:50:58;7.72;;;6.32;;
7529;SDS011;3806;52.270;10.544;2023-06-22T12:53:24;8.73;;;6.32;;
7529;SDS011;3806;52.270;10.544;2023-06-22T12:55:52;8.50;;;5.68;;
7529;SDS011;3806;52.270;10.544;2023-06-22T12:58:17;8.60;;;5.80;;
7529;SDS011;3806;52.270;10.544;2023-06-22T13:00:43;8.00;;;5.80;;
7529;SDS011;3806;52.270;10.544;2023-06-22T13:03:08;8.10;;;6.20;;
7529;SDS011;3806;52.270;10.544;2023-06-22T13:05:34;13.25;;;6.40;;
7529;SDS011;3806;52.270;10.544;2023-06-22T13:08:01;7.70;;;6.47;;
7529;SDS011;3806;52.270;10.544;2023-06-22T13:10:26;7.85;;;6.78;;
7529;SDS011;3806;52.270;10.544;2023-06-22T13:12:52;8.70;;;6.45;;
7529;SDS011;3806;52.270;10.544;2023-06-22T13:15:25;9.25;;;6.00;;
7529;SDS011;3806;52.270;10.544;2023-06-22T13:17:53;11.38;;;6.80;;
7529;SDS011;3806;52.270;10.544;2023-06-22T13:20:19;8.02;;;6.53;;
7529;SDS011;3806;52.270;10.544;2023-06-22T13:22:45;8.57;;;6.60;;
7529;SDS011;3806;52.270;10.544;2023-06-22T13:25:13;7.57;;;6.40;;
7529;SDS011;3806;52.270;10.544;2023-06-22T13:27:43;7.82;;;6.57;;
7529;SDS011;3806;52.270;10.544;2023-06-22T13:30:10;7.53;;;6.55;;
7529;SDS011;3806;52.270;10.544;2023-06-22T13:32:35;11.20;;;6.57;;
7529;SDS011;3806;52.270;10.544;2023-06-22T13:35:01;7.82;;;6.65;;
7529;SDS011;3806;52.270;10.544;2023-06-22T13:37:27;7.95;;;5.93;;
7529;SDS011;3806;52.270;10.544;2023-06-22T13:39:52;9.65;;;6.28;;
7529;SDS011;3806;52.270;10.544;2023-06-22T13:42:18;9.27;;;6.55;;
7529;SDS011;3806;52.270;10.544;2023-06-22T13:44:43;9.85;;;7.43;;
7529;SDS011;3806;52.270;10.544;2023-06-22T13:47:09;8.20;;;7.13;;
7529;SDS011;3806;52.270;10.544;2023-06-22T13:49:34;6.95;;;6.00;;
7529;SDS011;3806;52.270;10.544;2023-06-22T13:52:00;9.02;;;7.53;;
7529;SDS011;3806;52.270;10.544;2023-06-22T13:54:26;8.02;;;6.60;;
7529;SDS011;3806;52.270;10.544;2023-06-22T13:56:51;8.65;;;6.55;;
7529;SDS011;3806;52.270;10.544;2023-06-22T13:59:17;8.05;;;6.53;;
7529;SDS011;3806;52.270;10.544;2023-06-22T14:01:42;8.25;;;6.70;;
7529;SDS011;3806;52.270;10.544;2023-06-22T14:04:08;9.70;;;7.40;;
7529;SDS011;3806;52.270;10.544;2023-06-22T14:06:34;8.45;;;6.68;;
7529;SDS011;3806;52.270;10.544;2023-06-22T14:08:59;8.93;;;7.20;;
7529;SDS011;3806;52.270;10.544;2023-06-22T14:11:25;9.43;;;6.90;;
7529;SDS011;3806;52.270;10.544;2023-06-22T14:13:50;9.15;;;7.00;;
7529;SDS011;3806;52.270;10.544;2023-06-22T14:16:16;8.63;;;7.20;;
7529;SDS011;3806;52.270;10.544;2023-06-22T14:18:42;8.77;;;7.40;;
7529;SDS011;3806;52.270;10.544;2023-06-22T14:21:07;9.27;;;7.35;;
7529;SDS011;3806;52.270;10.544;2023-06-22T14:23:33;9.70;;;7.45;;
7529;SDS011;3806;52.270;10.544;2023-06-22T14:25:59;10.32;;;7.93;;
7529;SDS011;3806;52.270;10.544;2023-06-22T14:28:25;10.25;;;6.95;;
7529;SDS011;3806;52.270;10.544;2023-06-22T14:30:50;8.73;;;6.93;;
7529;SDS011;3806;52.270;10.544;2023-06-22T14:33:15;7.90;;;6.75;;
7529;SDS011;3806;52.270;10.544;2023-06-22T14:35:41;10.18;;;8.20;;
7529;SDS011;3806;52.270;10.544;2023-06-22T14:38:06;8.98;;;7.13;;
7529;SDS011;3806;52.270;10.544;2023-06-22T14:40:32;10.82;;;6.38;;
7529;SDS011;3806;52.270;10.544;2023-06-22T14:42:57;9.10;;;7.13;;
7529;SDS011;3806;52.270;10.544;2023-06-22T14:45:23;11.15;;;8.18;;
7529;SDS011;3806;52.270;10.544;2023-06-22T14:47:49;9.50;;;7.60;;
7529;SDS011;3806;52.270;10.544;2023-06-22T14:50:15;11.38;;;7.97;;
7529;SDS011;3806;52.270;10.544;2023-06-22T14:52:40;8.82;;;7.35;;
7529;SDS011;3806;52.270;10.544;2023-06-22T14:55:06;10.43;;;7.88;;
7529;SDS011;3806;52.270;10.544;2023-06-22T14:57:32;8.73;;;7.72;;
7529;SDS011;3806;52.270;10.544;2023-06-22T14:59:57;10.13;;;7.15;;